Time;durP1;ratioP1;P1;durP2;ratioP2;P2;SDS_P1;SDS_P2;PMS_P1;PMS_P2;Temp;Humidity;BMP_temperature;BMP_pressure;BME280_temperature;BME280_humidity;BME280_pressure;Samples;Min_cycle;Max_cycle;Signal;HPM_P1;HPM_P2
2021/06/16 13:22:57;;;;;;;4.97;1.40;;;;;;;24.82;100.00;98680.41;1786469;79;22738;-65
2021/06/16 13:25:32;;;;;;;2.95;1.60;;;;;;;24.72;100.00;98675.30;1791256;80;20875;-65
2021/06/16 13:28:02;;;;;;;3.85;2.05;;;;;;;24.49;100.00;98681.80;1791153;80;21144;-63
2021/06/16 13:30:38;;;;;;;3.22;1.90;;;;;;;24.31;100.00;98681.73;1791069;80;20930;-70
2021/06/16 13:33:06;;;;;;;2.33;1.80;;;;;;;24.17;100.00;98688.54;1791207;79;20891;-63
2021/06/16 13:35:33;;;;;;;2.95;1.87;;;;;;;24.03;100.00;98688.59;1791151;80;20887;-65
2021/06/16 13:38:01;;;;;;;4.90;2.25;;;;;;;23.89;100.00;98689.53;1791183;80;20966;-63
2021/06/16 13:40:29;;;;;;;4.33;2.17;;;;;;;23.78;100.00;98688.05;1791216;79;21163;-63
2021/06/16 13:42:59;;;;;;;4.55;2.50;;;;;;;23.67;100.00;98683.37;1791045;80;20990;-64
2021/06/16 13:45:29;;;;;;;7.62;2.52;;;;;;;23.64;100.00;98692.98;1788236;80;20954;-65
2021/06/16 13:47:58;;;;;;;5.20;3.17;;;;;;;23.68;100.00;98693.67;1755934;80;21523;-66
2021/06/16 13:50:26;;;;;;;6.05;2.80;;;;;;;23.77;100.00;98694.40;1745809;81;21010;-66
2021/06/16 13:52:55;;;;;;;4.50;2.60;;;;;;;23.92;100.00;98696.54;1760281;80;21131;-67
2021/06/16 13:55:24;;;;;;;2.70;2.45;;;;;;;24.11;100.00;98699.70;1758823;80;20989;-66
2021/06/16 13:57:52;;;;;;;4.35;2.72;;;;;;;24.29;100.00;98693.59;1763847;81;21037;-66
2021/06/16 14:00:20;;;;;;;3.75;2.50;;;;;;;24.50;100.00;98700.19;1761264;81;21474;-67
2021/06/16 14:02:48;;;;;;;5.70;2.87;;;;;;;24.66;100.00;98702.21;1762759;81;21542;-66
2021/06/16 14:05:16;;;;;;;4.25;2.90;;;;;;;24.73;100.00;98705.34;1745477;81;21532;-67
2021/06/16 14:07:45;;;;;;;4.37;3.10;;;;;;;24.73;100.00;98697.25;1761210;81;21120;-67
2021/06/16 14:10:14;;;;;;;3.27;2.67;;;;;;;24.69;100.00;98696.60;1745910;80;20935;-68
2021/06/16 14:12:43;;;;;;;4.87;3.05;;;;;;;24.69;100.00;98705.18;1738487;82;20911;-66
2021/06/16 14:15:12;;;;;;;3.98;2.52;;;;;;;24.76;100.00;98702.42;1742950;81;20968;-67
2021/06/16 14:17:43;;;;;;;3.75;2.35;;;;;;;24.84;100.00;98696.48;1759342;80;21504;-67
2021/06/16 14:20:14;;;;;;;4.22;2.90;;;;;;;24.96;100.00;98700.51;1764304;80;20875;-67
2021/06/16 14:22:42;;;;;;;5.30;2.98;;;;;;;25.13;100.00;98693.09;1751104;81;20940;-67
2021/06/16 14:25:12;;;;;;;4.62;2.95;;;;;;;25.26;100.00;98705.58;1740740;82;21046;-66
2021/06/16 14:27:42;;;;;;;4.03;2.87;;;;;;;25.38;100.00;98700.63;1723870;83;20943;-67
2021/06/16 14:30:14;;;;;;;7.60;2.98;;;;;;;25.46;100.00;98700.06;1740662;82;21536;-68
2021/06/16 14:32:42;;;;;;;5.03;2.90;;;;;;;25.45;100.00;98702.38;1724003;82;20943;-65
2021/06/16 14:35:11;;;;;;;7.70;3.83;;;;;;;25.43;100.00;98702.98;1740804;82;21508;-63
2021/06/16 14:37:39;;;;;;;5.67;3.08;;;;;;;25.40;100.00;98695.97;1724207;82;20959;-65
2021/06/16 14:40:08;;;;;;;4.35;2.90;;;;;;;25.39;100.00;98693.39;1740626;82;21021;-65
2021/06/16 14:42:36;;;;;;;4.80;3.42;;;;;;;25.41;100.00;98697.70;1724171;82;21132;-65
2021/06/16 14:45:05;;;;;;;4.45;3.10;;;;;;;25.45;100.00;98698.33;1740701;82;20875;-63
2021/06/16 14:47:33;;;;;;;6.20;3.00;;;;;;;25.48;100.00;98699.95;1744989;80;20954;-63
2021/06/16 14:50:00;;;;;;;6.55;3.42;;;;;;;25.52;100.00;98709.55;1771494;80;20936;-64
2021/06/16 14:52:28;;;;;;;4.55;3.30;;;;;;;25.51;100.00;98708.69;1771490;80;20878;-63
2021/06/16 15:20:06;;;;;;;4.92;2.75;;;;;;;26.11;100.00;98717.29;1788072;79;22373;-64
2021/06/16 15:22:34;;;;;;;4.17;2.72;;;;;;;26.19;100.00;98722.11;1763475;81;20984;-64
2021/06/16 15:25:05;;;;;;;3.67;3.00;;;;;;;26.15;100.00;98722.83;1763410;81;21441;-66
2021/06/16 15:27:32;;;;;;;2.95;2.65;;;;;;;26.11;100.00;98733.51;1763365;81;20979;-65
2021/06/16 15:30:01;;;;;;;9.00;3.10;;;;;;;26.07;100.00;98732.51;1763503;81;20934;-65
2021/06/16 15:32:28;;;;;;;4.47;2.65;;;;;;;26.02;100.00;98734.20;1761586;80;20839;-65
2021/06/16 15:34:56;;;;;;;4.85;2.70;;;;;;;25.96;100.00;98739.55;1763147;81;21403;-65
2021/06/16 15:37:23;;;;;;;5.37;2.80;;;;;;;25.90;100.00;98741.86;1763368;81;21100;-64
2021/06/16 15:39:51;;;;;;;8.60;2.75;;;;;;;25.82;100.00;98745.14;1763331;81;20935;-64
2021/06/16 15:42:22;;;;;;;6.47;2.67;;;;;;;25.75;100.00;98745.22;1763092;81;21523;-64
2021/06/16 15:44:51;;;;;;;3.55;2.87;;;;;;;25.66;100.00;98748.12;1763228;81;20901;-66
2021/06/16 15:47:19;;;;;;;7.90;3.15;;;;;;;25.55;100.00;98746.67;1763186;81;20964;-66
2021/06/16 15:49:47;;;;;;;4.70;2.70;;;;;;;25.47;100.00;98756.28;1763749;81;21501;-66
2021/06/16 15:55:06;;;;;;;7.62;3.17;;;;;;;25.04;100.00;98752.13;1730104;81;20930;-66
2021/06/16 15:57:35;;;;;;;5.65;2.75;;;;;;;24.72;100.00;98751.67;1729762;82;20880;-66
2021/06/16 16:00:05;;;;;;;6.78;3.35;;;;;;;24.60;100.00;98747.14;1729906;81;20899;-67
2021/06/16 16:02:33;;;;;;;4.67;3.08;;;;;;;24.48;100.00;98754.70;1721300;82;21444;-67
2021/06/16 16:05:01;;;;;;;3.65;3.02;;;;;;;24.36;100.00;98744.77;1710593;82;21394;-67
2021/06/16 16:07:29;;;;;;;3.67;3.10;;;;;;;24.30;100.00;98744.70;1700793;84;21485;-67
2021/06/16 16:09:56;;;;;;;5.65;2.60;;;;;;;24.28;100.00;98752.52;1700914;83;20895;-67
2021/06/16 16:12:28;;;;;;;3.77;2.75;;;;;;;24.25;100.00;98747.30;1701000;84;20938;-67
2021/06/16 16:14:53;;;;;;;3.52;3.02;;;;;;;24.21;100.00;98754.73;1701041;83;21897;-67
2021/06/16 16:17:21;;;;;;;4.47;3.02;;;;;;;24.16;100.00;98755.05;1700879;84;20923;-66
2021/06/16 16:19:48;;;;;;;3.45;3.15;;;;;;;24.13;100.00;98764.69;1700677;83;20918;-66
2021/06/16 16:22:16;;;;;;;3.70;3.30;;;;;;;24.10;100.00;98769.39;1700392;84;20927;-66
2021/06/16 16:24:44;;;;;;;6.72;3.37;;;;;;;24.07;100.00;98787.97;1700427;84;20927;-66
2021/06/16 16:27:14;;;;;;;4.47;3.35;;;;;;;24.03;100.00;98797.23;1711684;81;21091;-66
2021/06/16 16:29:42;;;;;;;4.70;3.05;;;;;;;23.99;100.00;98812.35;1711497;81;20890;-59
2021/06/16 16:32:10;;;;;;;4.83;3.50;;;;;;;23.95;100.00;98813.03;1698910;84;20952;-59
2021/06/16 16:34:38;;;;;;;4.72;3.08;;;;;;;23.89;100.00;98791.03;1699182;83;20929;-61
2021/06/16 16:37:09;;;;;;;5.50;3.52;;;;;;;23.82;100.00;98774.41;1696437;83;21459;-63
2021/06/16 16:39:36;;;;;;;3.90;3.35;;;;;;;23.75;100.00;98783.86;1705768;81;21086;-63
2021/06/16 16:42:05;;;;;;;7.67;3.50;;;;;;;23.69;100.00;98789.16;1712526;81;20883;-64
2021/06/16 16:44:33;;;;;;;4.22;3.65;;;;;;;23.61;100.00;98793.29;1715909;81;20930;-67
2021/06/16 16:47:01;;;;;;;5.55;2.95;;;;;;;23.55;100.00;98808.02;1714548;81;20912;-62
2021/06/16 16:49:28;;;;;;;4.50;3.30;;;;;;;23.50;100.00;98797.98;1712571;81;20977;-62
2021/06/16 16:51:56;;;;;;;5.67;3.17;;;;;;;23.41;100.00;98785.12;1714389;81;21610;-64
2021/06/16 16:54:23;;;;;;;5.17;3.20;;;;;;;23.33;100.00;98790.13;1714690;81;20901;-65
2021/06/16 16:56:51;;;;;;;3.70;3.27;;;;;;;23.24;100.00;98797.83;1716609;81;20900;-61
2021/06/16 16:59:19;;;;;;;8.10;3.30;;;;;;;23.17;100.00;98795.59;1730424;81;20934;-73
2021/06/16 17:01:47;;;;;;;4.45;3.00;;;;;;;23.08;100.00;98783.58;1730786;81;20919;-73
2021/06/16 17:04:15;;;;;;;4.67;3.35;;;;;;;23.03;100.00;98768.69;1731008;81;21056;-74
2021/06/16 17:06:44;;;;;;;4.30;3.12;;;;;;;23.00;100.00;98764.85;1730635;81;20876;-75
2021/06/16 17:24:10;;;;;;;3.47;2.60;;;;;;;23.42;100.00;98794.92;1786669;79;22307;-73
2021/06/16 17:26:38;;;;;;;5.35;3.15;;;;;;;23.47;100.00;98812.52;1791224;80;20918;-69
2021/06/16 17:29:06;;;;;;;5.40;3.00;;;;;;;23.47;100.00;98819.24;1791167;80;21159;-69
2021/06/16 17:31:35;;;;;;;5.97;3.65;;;;;;;23.42;100.00;98838.86;1791474;80;20973;-69
2021/06/16 17:34:03;;;;;;;6.45;3.55;;;;;;;23.32;100.00;98849.83;1790955;80;20934;-69
2021/06/16 17:36:34;;;;;;;3.45;2.95;;;;;;;23.03;100.00;98845.36;1791323;79;20875;-69
2021/06/16 17:39:03;;;;;;;4.25;2.90;;;;;;;22.79;100.00;98874.11;1791175;79;20828;-70
2021/06/16 17:41:33;;;;;;;4.83;3.50;;;;;;;22.59;100.00;98865.86;1790414;80;21120;-70
2021/06/16 17:44:00;;;;;;;6.55;3.25;;;;;;;22.38;100.00;98861.76;1791123;79;21469;-70
2021/06/16 17:46:28;;;;;;;7.33;3.33;;;;;;;22.20;100.00;98861.45;1790884;79;21029;-69
2021/06/16 17:48:57;;;;;;;3.45;2.80;;;;;;;21.99;100.00;98860.84;1791102;79;20934;-70
2021/06/16 17:51:25;;;;;;;4.47;2.60;;;;;;;21.78;100.00;98858.90;1791248;79;20915;-70
2021/06/16 17:53:53;;;;;;;3.10;2.67;;;;;;;21.62;100.00;98859.34;1789627;79;21091;-68
2021/06/16 17:56:22;;;;;;;3.10;2.45;;;;;;;21.46;100.00;98859.80;1790306;80;21564;-67
2021/06/16 17:58:50;;;;;;;5.70;2.83;;;;;;;21.38;100.00;98862.03;1791138;80;20951;-67
2021/06/16 18:01:18;;;;;;;3.12;2.60;;;;;;;21.40;100.00;98861.00;1791056;80;20934;-59
2021/06/16 18:03:46;;;;;;;4.30;2.40;;;;;;;21.46;100.00;98859.80;1791187;79;20860;-59
2021/06/16 18:06:15;;;;;;;4.08;2.70;;;;;;;21.51;100.00;98865.30;1791246;79;21812;-60
2021/06/16 18:08:43;;;;;;;9.20;2.62;;;;;;;21.57;100.00;98861.41;1790945;80;21600;-58
2021/06/16 18:11:11;;;;;;;3.15;2.65;;;;;;;21.60;100.00;98855.39;1791121;79;21480;-65
2021/06/16 18:13:43;;;;;;;5.37;2.90;;;;;;;21.59;100.00;98860.85;1788167;80;20934;-65
2021/06/16 18:16:13;;;;;;;3.35;2.50;;;;;;;21.53;100.00;98858.03;1760004;80;20977;-65
2021/06/16 18:18:45;;;;;;;3.65;3.12;;;;;;;21.49;100.00;98860.49;1744527;81;21484;-65
2021/06/16 18:21:10;;;;;;;4.08;3.65;;;;;;;21.49;100.00;98865.00;1758761;81;21047;-66
2021/06/16 18:23:38;;;;;;;5.85;3.12;;;;;;;21.47;100.00;98861.53;1750312;80;21276;-66
2021/06/16 18:26:06;;;;;;;5.37;3.02;;;;;;;21.46;100.00;98860.66;1740025;81;21009;-66
2021/06/16 18:28:34;;;;;;;5.72;2.55;;;;;;;21.43;100.00;98870.70;1736747;81;21427;-65
2021/06/16 18:31:03;;;;;;;3.77;2.50;;;;;;;21.40;100.00;98874.89;1739851;82;21900;-66
2021/06/16 18:33:31;;;;;;;5.05;3.27;;;;;;;21.40;100.00;98877.58;1740794;81;21482;-67
2021/06/16 18:36:04;;;;;;;4.65;2.70;;;;;;;21.40;100.00;98877.58;1740279;81;20987;-67
2021/06/16 18:38:30;;;;;;;5.30;3.00;;;;;;;21.39;100.00;98878.52;1739638;82;21126;-67
2021/06/16 18:40:58;;;;;;;4.55;2.72;;;;;;;21.40;100.00;98885.63;1740188;81;21549;-67
2021/06/16 18:43:26;;;;;;;4.42;2.70;;;;;;;21.36;100.00;98885.79;1740558;82;21147;-67
2021/06/16 18:45:55;;;;;;;3.80;2.22;;;;;;;21.36;100.00;98892.50;1736345;81;20948;-67
2021/06/16 18:48:23;;;;;;;4.17;2.25;;;;;;;21.38;100.00;98890.20;1740656;81;20985;-66
2021/06/16 18:50:52;;;;;;;4.70;2.85;;;;;;;21.39;100.00;98894.63;1740042;82;20988;-66
2021/06/16 18:53:19;;;;;;;8.00;3.30;;;;;;;21.39;100.00;98896.83;1740519;81;20999;-67
2021/06/16 18:55:47;;;;;;;6.37;3.30;;;;;;;21.37;100.00;98886.66;1726216;82;21182;-67
2021/06/16 18:58:16;;;;;;;4.90;3.00;;;;;;;21.37;100.00;98893.36;1736319;81;20939;-66
2021/06/16 19:00:44;;;;;;;6.35;2.87;;;;;;;21.38;100.00;98899.12;1740647;81;21507;-67
2021/06/16 19:05:42;;;;;;;3.52;3.20;;;;;;;21.44;100.00;98904.63;1715240;82;21001;-67
2021/06/16 19:08:16;;;;;;;4.10;3.65;;;;;;;21.46;100.00;98898.70;1740169;82;21180;-66
2021/06/16 19:10:47;;;;;;;4.30;3.02;;;;;;;21.46;100.00;98904.08;1739877;82;21549;-64
2021/06/16 19:13:15;;;;;;;3.45;3.15;;;;;;;21.48;100.00;98901.70;1736470;82;21004;-64
2021/06/16 19:15:43;;;;;;;3.90;3.50;;;;;;;21.51;100.00;98908.24;1740020;82;20994;-65
2021/06/16 19:18:11;;;;;;;4.20;3.30;;;;;;;21.54;100.00;98903.18;1740599;81;21080;-66
2021/06/16 19:20:39;;;;;;;4.47;3.40;;;;;;;21.54;100.00;98909.41;1740322;81;21142;-66
2021/06/16 19:23:08;;;;;;;4.72;3.00;;;;;;;21.55;100.00;98906.25;1745291;81;21047;-67
2021/06/16 19:25:38;;;;;;;3.95;3.00;;;;;;;21.56;100.00;98902.63;1766553;80;21020;-67
2021/06/16 19:28:05;;;;;;;4.25;3.40;;;;;;;21.56;100.00;98900.80;1765069;81;21080;-65
2021/06/16 19:30:33;;;;;;;5.62;3.65;;;;;;;21.59;100.00;98901.11;1758352;81;21038;-66
2021/06/16 19:33:01;;;;;;;4.92;3.35;;;;;;;21.60;100.00;98901.50;1763870;81;21822;-70
2021/06/16 19:35:30;;;;;;;6.40;3.95;;;;;;;21.60;100.00;98892.11;1740259;81;20970;-67
2021/06/16 19:37:58;;;;;;;5.05;3.37;;;;;;;21.61;100.00;98897.39;1793217;78;21030;-64
2021/06/16 19:40:26;;;;;;;3.10;2.85;;;;;;;21.61;100.00;98892.50;1751858;81;21062;-66
2021/06/16 19:42:53;;;;;;;4.03;3.37;;;;;;;21.61;100.00;98892.02;1740813;81;20989;-66
2021/06/16 19:45:21;;;;;;;5.67;3.60;;;;;;;21.59;100.00;98888.55;1751963;81;21077;-66
2021/06/16 19:47:49;;;;;;;5.15;3.52;;;;;;;21.59;100.00;98889.03;1740437;82;21614;-66
2021/06/16 19:50:18;;;;;;;4.80;4.30;;;;;;;21.56;100.00;98889.20;1749789;81;20895;-65
2021/06/16 19:52:47;;;;;;;3.95;2.40;;;;;;;21.53;100.00;98977.46;1749494;81;20989;-66
2021/06/16 19:55:15;;;;;;;33.65;2.05;;;;;;;21.38;100.00;98984.12;1739332;81;20931;-66
2021/06/16 19:57:44;;;;;;;2.27;0.90;;;;;;;21.09;100.00;98989.13;1756427;81;21839;-66
2021/06/16 20:00:13;;;;;;;0.50;0.50;;;;;;;20.66;100.00;98996.63;1751839;81;20962;-66
2021/06/16 20:02:41;;;;;;;1.42;0.80;;;;;;;20.24;100.00;99010.70;1740295;81;21057;-66
2021/06/16 20:05:10;;;;;;;1.37;0.93;;;;;;;19.79;100.00;99026.13;1764681;80;21020;-66
2021/06/16 20:07:37;;;;;;;1.77;0.60;;;;;;;19.37;100.00;99028.86;1741150;81;21058;-65
2021/06/16 20:10:06;;;;;;;2.67;0.80;;;;;;;19.10;100.00;99030.92;1792560;78;21163;-65
2021/06/16 20:12:34;;;;;;;1.77;0.80;;;;;;;18.93;100.00;99024.55;1755746;81;20954;-66
2021/06/16 20:15:03;;;;;;;2.52;0.98;;;;;;;18.72;100.00;99038.30;1740766;82;20933;-65
2021/06/16 20:17:31;;;;;;;1.45;0.60;;;;;;;18.61;100.00;99045.38;1792317;79;20897;-66
2021/06/16 20:19:59;;;;;;;6.20;1.02;;;;;;;18.57;100.00;99047.77;1793159;80;20978;-70
2021/06/16 20:22:28;;;;;;;7.42;1.05;;;;;;;18.54;100.00;99043.89;1751853;81;21486;-67
2021/06/16 20:24:57;;;;;;;3.90;0.98;;;;;;;18.39;100.00;99052.48;1741056;81;21564;-78
2021/06/16 20:27:24;;;;;;;4.58;0.93;;;;;;;18.22;100.00;99059.36;1746520;81;20899;-74
2021/06/16 20:29:52;;;;;;;3.15;0.80;;;;;;;18.09;100.00;99055.41;1749010;81;21014;-74
2021/06/16 20:32:20;;;;;;;2.15;0.80;;;;;;;17.98;100.00;99052.28;1740597;81;20974;-76
2021/06/16 20:34:48;;;;;;;1.70;0.70;;;;;;;18.00;100.00;99049.55;1749542;81;22603;-73
2021/06/16 20:37:16;;;;;;;1.92;0.82;;;;;;;17.97;100.00;99049.64;1740995;81;20906;-74
2021/06/16 20:39:43;;;;;;;2.92;0.60;;;;;;;17.98;100.00;99035.40;1767531;81;20871;-66
2021/06/16 20:42:13;;;;;;;3.02;0.90;;;;;;;17.99;100.00;99031.34;1747217;81;20977;-67
2021/06/16 20:44:41;;;;;;;4.10;0.80;;;;;;;18.00;100.00;99029.53;1747440;81;21093;-67
2021/06/16 20:47:10;;;;;;;3.10;0.68;;;;;;;18.04;100.00;99028.49;1750751;81;21256;-66
2021/06/16 20:49:38;;;;;;;5.08;1.17;;;;;;;18.10;100.00;99026.45;1738970;81;20946;-66
2021/06/16 20:52:07;;;;;;;4.15;0.78;;;;;;;18.15;100.00;99013.80;1765756;80;21026;-68
2021/06/16 20:54:35;;;;;;;3.72;0.80;;;;;;;18.20;100.00;99015.83;1762713;80;20999;-65
2021/06/16 20:57:04;;;;;;;2.80;0.60;;;;;;;18.25;100.00;99011.64;1739777;81;20990;-66
2021/06/16 20:59:31;;;;;;;3.50;0.78;;;;;;;18.31;100.00;99027.88;1771458;79;22022;-65
2021/06/16 21:02:02;;;;;;;3.10;0.70;;;;;;;18.38;100.00;99019.56;1771621;81;20902;-65
2021/06/16 21:04:29;;;;;;;3.40;1.00;;;;;;;18.44;100.00;98991.74;1741546;81;21532;-66
2021/06/16 21:06:58;;;;;;;4.80;0.88;;;;;;;18.43;100.00;98966.84;1771747;81;20863;-68
2021/06/16 21:09:26;;;;;;;4.90;0.93;;;;;;;18.36;100.00;98957.34;1741129;81;20944;-65
2021/06/16 21:11:55;;;;;;;5.37;1.40;;;;;;;18.27;100.00;98961.72;1771711;81;21469;-65
2021/06/16 21:14:23;;;;;;;1.80;0.90;;;;;;;18.18;100.00;98957.62;1740987;81;21438;-65
2021/06/16 21:16:51;;;;;;;3.30;1.00;;;;;;;18.11;100.00;98961.46;1771799;81;21477;-64
2021/06/16 21:19:19;;;;;;;1.67;0.90;;;;;;;18.09;100.00;98949.98;1741191;81;20959;-65
2021/06/16 21:21:47;;;;;;;5.28;1.10;;;;;;;18.12;100.00;98943.18;1771659;81;20934;-65
2021/06/16 21:24:16;;;;;;;2.17;1.10;;;;;;;18.17;100.00;98926.52;1741494;81;21171;-66
2021/06/16 21:26:44;;;;;;;3.05;0.65;;;;;;;18.21;100.00;98928.59;1796747;79;21949;-68
2021/06/16 21:29:13;;;;;;;2.75;0.78;;;;;;;18.22;100.00;98932.53;1796953;79;20963;-65
2021/06/16 21:31:42;;;;;;;1.92;0.65;;;;;;;18.27;100.00;98920.80;1796788;79;20936;-66
2021/06/16 21:34:10;;;;;;;3.02;0.72;;;;;;;18.29;100.00;98934.95;1796903;80;20976;-67
2021/06/16 21:36:39;;;;;;;4.67;1.32;;;;;;;18.33;100.00;98944.58;1796807;79;21236;-65
2021/06/16 21:39:08;;;;;;;7.65;0.80;;;;;;;18.36;100.00;98943.11;1796769;80;21450;-68
2021/06/16 21:41:37;;;;;;;2.65;0.90;;;;;;;18.37;100.00;98955.07;1797175;79;21475;-66
2021/06/16 21:44:06;;;;;;;1.32;0.57;;;;;;;18.40;100.00;98960.75;1796815;80;21430;-65
2021/06/16 21:46:34;;;;;;;4.37;0.90;;;;;;;18.42;100.00;98960.22;1797165;79;20844;-67
2021/06/16 21:49:26;;;;;;;3.42;0.75;;;;;;;18.44;100.00;98953.89;1796790;80;21139;-65
2021/06/16 21:51:56;;;;;;;2.65;0.82;;;;;;;18.45;100.00;98953.45;1797127;79;20895;-65
2021/06/16 21:54:27;;;;;;;1.75;0.98;;;;;;;18.44;100.00;98952.55;1796795;80;21430;-65
2021/06/16 21:56:56;;;;;;;1.15;0.80;;;;;;;18.43;100.00;98956.16;1797153;79;20896;-65
2021/06/16 21:59:24;;;;;;;5.20;1.12;;;;;;;18.43;100.00;98966.84;1796926;79;20845;-67
2021/06/16 22:06:03;;;;;;;7.05;1.00;;;;;;;18.44;100.00;98979.72;1797167;79;21028;-64
2021/06/16 22:08:32;;;;;;;15.43;1.55;;;;;;;18.43;100.00;98976.19;1797141;79;20989;-65
2021/06/16 22:11:04;;;;;;;3.47;1.05;;;;;;;18.42;100.00;98993.61;1797020;79;20849;-64
2021/06/16 22:13:33;;;;;;;2.15;0.90;;;;;;;18.43;100.00;98984.20;1797291;79;20864;-65
2021/06/16 22:16:01;;;;;;;4.00;1.20;;;;;;;18.42;100.00;98965.09;1796918;79;21127;-64
2021/06/16 22:18:32;;;;;;;1.67;0.80;;;;;;;18.39;100.00;98955.01;1795602;79;20844;-63
2021/06/16 22:21:02;;;;;;;2.47;0.98;;;;;;;18.35;100.00;98940.91;1796949;79;20980;-64
2021/06/16 22:23:31;;;;;;;4.47;1.27;;;;;;;18.31;100.00;98943.30;1797659;79;20882;-64
2021/06/16 22:26:00;;;;;;;1.72;1.07;;;;;;;18.32;100.00;98963.73;1812704;79;21422;-65
2021/06/16 22:28:29;;;;;;;3.90;1.17;;;;;;;18.32;100.00;98956.19;1812625;79;22115;-63
2021/06/16 22:30:58;;;;;;;1.35;1.07;;;;;;;18.34;100.00;98958.33;1812448;78;20880;-64
2021/06/16 22:33:29;;;;;;;2.90;1.00;;;;;;;18.35;100.00;98960.94;1812413;78;20927;-64
2021/06/16 22:35:58;;;;;;;0.80;0.80;;;;;;;18.34;100.00;98967.21;1812709;79;21446;-64
2021/06/16 22:38:28;;;;;;;4.40;1.77;;;;;;;18.32;100.00;98978.89;1812607;78;20880;-64
2021/06/16 22:41:02;;;;;;;0.95;0.80;;;;;;;18.32;100.00;98981.09;1812521;78;21124;-64
2021/06/16 22:43:28;;;;;;;6.20;1.10;;;;;;;18.33;100.00;98985.50;1812087;78;20918;-64
2021/06/16 22:45:57;;;;;;;2.25;0.72;;;;;;;18.34;100.00;98981.90;1812519;78;21407;-64
2021/06/16 22:48:27;;;;;;;2.60;0.90;;;;;;;18.35;100.00;98983.64;1812496;78;21058;-64
2021/06/16 22:50:57;;;;;;;1.12;0.70;;;;;;;18.38;100.00;98979.97;1812674;79;20924;-64
2021/06/16 22:53:28;;;;;;;3.80;0.88;;;;;;;18.40;100.00;98984.78;1812503;78;21132;-64
2021/06/16 22:55:56;;;;;;;1.70;0.90;;;;;;;18.39;100.00;98989.26;1812695;79;20919;-64
2021/06/16 22:58:30;;;;;;;2.75;0.95;;;;;;;18.39;100.00;98992.39;1811227;79;21501;-64
2021/06/16 23:00:59;;;;;;;2.95;0.93;;;;;;;18.36;100.00;98986.71;1813051;78;21430;-64
2021/06/16 23:03:28;;;;;;;2.62;0.80;;;;;;;18.34;100.00;98989.04;1812504;78;21014;-64
2021/06/16 23:05:58;;;;;;;1.60;0.72;;;;;;;18.31;100.00;98995.84;1812786;78;21506;-64
2021/06/16 23:08:31;;;;;;;2.70;1.00;;;;;;;18.28;100.00;98994.63;1812356;78;21533;-64
2021/06/16 23:11:02;;;;;;;2.87;0.90;;;;;;;18.24;100.00;99000.09;1812550;78;20980;-64
2021/06/16 23:13:31;;;;;;;3.20;0.70;;;;;;;18.21;100.00;98997.55;1812558;78;21447;-64
2021/06/16 23:16:00;;;;;;;2.27;0.80;;;;;;;18.18;100.00;98993.66;1812815;78;21453;-64
2021/06/16 23:18:28;;;;;;;1.35;1.02;;;;;;;18.17;100.00;98997.25;1812435;78;21147;-64
2021/06/16 23:20:58;;;;;;;2.58;0.85;;;;;;;18.12;100.00;98989.02;1812477;79;21011;-64
2021/06/16 23:23:29;;;;;;;3.20;0.90;;;;;;;18.11;100.00;98986.82;1812729;79;20970;-63
2021/06/16 23:25:58;;;;;;;5.40;1.02;;;;;;;18.08;100.00;98974.93;1810245;79;21027;-64
2021/06/16 23:28:28;;;;;;;2.35;0.80;;;;;;;18.09;100.00;98974.47;1809879;79;21593;-64
2021/06/16 23:30:56;;;;;;;4.80;1.00;;;;;;;18.09;100.00;98965.13;1809844;79;21379;-64
2021/06/16 23:33:32;;;;;;;3.62;1.00;;;;;;;18.09;100.00;98962.45;1809688;79;21438;-64
2021/06/16 23:36:00;;;;;;;3.00;0.90;;;;;;;18.05;100.00;98957.70;1809107;79;21033;-64
2021/06/16 23:38:30;;;;;;;2.87;1.10;;;;;;;18.03;100.00;98946.22;1810272;79;21534;-64
2021/06/16 23:40:59;;;;;;;2.47;1.10;;;;;;;18.05;100.00;98947.48;1809868;79;21537;-63
2021/06/16 23:43:28;;;;;;;8.35;1.10;;;;;;;18.04;100.00;98944.42;1810019;79;21889;-63
2021/06/16 23:45:58;;;;;;;2.50;0.90;;;;;;;18.02;100.00;98940.47;1809699;79;20963;-63
2021/06/16 23:48:29;;;;;;;3.83;0.90;;;;;;;17.99;100.00;98945.06;1809026;79;21088;-63
2021/06/16 23:50:59;;;;;;;5.45;1.12;;;;;;;17.98;100.00;98949.53;1809873;79;21410;-63
2021/06/16 23:53:29;;;;;;;4.35;1.20;;;;;;;18.00;100.00;98952.14;1809891;79;20932;-63
2021/06/16 23:55:58;;;;;;;3.40;1.30;;;;;;;17.98;100.00;98950.86;1810290;79;21438;-63
2021/06/16 23:58:28;;;;;;;1.40;1.00;;;;;;;17.99;100.00;98956.61;1810205;79;20895;-63
